Time;durP1;ratioP1;P1;durP2;ratioP2;P2;SDS_P1;SDS_P2;PMS_P1;PMS_P2;Temp;Humidity;BMP_temperature;BMP_pressure;BME280_temperature;BME280_humidity;BME280_pressure;Samples;Min_cycle;Max_cycle;Signal;HPM_P1;HPM_P2
2022/12/29 14:23:39;;;;;;;;;;;;;;;16.23;43.42;98812.38;10548152;27;1328;-82
2022/12/29 14:31:13;;;;;;;;;;;;;;;17.25;42.71;98804.59;10579883;27;1316;-68
2022/12/29 14:36:20;;;;;;;;;;;;;;;17.72;39.95;98801.09;10578311;28;888;-69
2022/12/29 14:41:26;;;;;;;;;;;;;;;17.91;38.04;98794.53;10577101;28;1181;-70
2022/12/29 14:46:42;;;;;;;;;;;;;;;17.58;38.58;98794.69;10577139;28;1981;-69
2022/12/29 14:51:42;;;;;;;;;;;;;;;17.41;39.55;98793.09;10576756;28;1468;-71
2022/12/29 14:56:42;;;;;;;;;;;;;;;17.36;40.33;98788.31;10577911;28;917;-67
2022/12/29 15:01:43;;;;;;;;;;;;;;;17.14;41.54;98789.09;10578653;28;1216;-68
2022/12/29 15:06:49;;;;;;;;;;;;;;;16.90;41.94;98786.50;10576366;28;1898;-67
2022/12/29 15:11:53;;;;;;;;;;;;;;;16.77;42.12;98783.56;10581548;28;1212;-68
2022/12/29 15:16:53;;;;;;;;;;;;;;;16.88;41.66;98777.88;10573942;28;808;-68
2022/12/29 15:21:53;;;;;;;;;;;;;;;17.27;38.86;98765.47;10576219;28;1272;-70
2022/12/29 15:26:54;;;;;;;;;;;;;;;17.22;38.36;98770.50;10582920;28;1906;-64
2022/12/29 15:31:55;;;;;;;;;;;;;;;16.70;40.06;98766.69;10600303;28;1180;-69
2022/12/29 15:36:55;;;;;;;;;;;;;;;16.60;40.63;98769.47;10600652;28;951;-71
2022/12/29 15:42:03;;;;;;;;;;;;;;;16.61;41.00;98759.72;10594532;28;1212;-69
2022/12/29 15:47:04;;;;;;;;;;;;;;;16.62;41.12;98769.34;10590499;28;1905;-66
2022/12/29 15:52:08;;;;;;;;;;;;;;;16.67;41.21;98770.47;10571751;28;1191;-69
2022/12/29 15:57:15;;;;;;;;;;;;;;;17.06;39.39;98764.41;10572007;28;886;-66
2022/12/29 16:02:15;;;;;;;;;;;;;;;17.24;38.04;98771.13;10571573;28;1370;-72
2022/12/29 16:07:26;;;;;;;;;;;;;;;17.01;39.41;98772.91;10571993;28;1914;-70
2022/12/29 16:12:30;;;;;;;;;;;;;;;16.97;40.30;98763.59;10589702;28;1175;-71
2022/12/29 16:17:31;;;;;;;;;;;;;;;16.94;40.75;98772.72;10570339;28;851;-68
2022/12/29 16:22:36;;;;;;;;;;;;;;;16.80;41.23;98772.59;10570665;28;1320;-66
2022/12/29 16:27:37;;;;;;;;;;;;;;;17.11;38.79;98773.50;10569944;28;1911;-67
2022/12/29 16:32:44;;;;;;;;;;;;;;;17.05;38.31;98779.50;10569578;28;1337;-68
2022/12/29 16:37:44;;;;;;;;;;;;;;;16.98;40.71;98779.34;10569947;28;891;-68
2022/12/29 16:42:48;;;;;;;;;;;;;;;17.10;41.31;98774.50;10569929;28;1193;-69
2022/12/29 16:48:08;;;;;;;;;;;;;;;17.12;44.67;98780.47;10568956;28;1910;-68
2022/12/29 16:53:17;;;;;;;;;;;;;;;16.87;48.87;98785.00;10586092;28;1198;-68
2022/12/29 16:58:18;;;;;;;;;;;;;;;16.81;52.04;98783.03;10586913;28;856;-68
2022/12/29 17:03:18;;;;;;;;;;;;;;;16.79;53.21;98770.94;10551388;28;1220;-69
2022/12/29 17:08:22;;;;;;;;;;;;;;;16.54;57.50;98781.56;10568321;28;1905;-70
2022/12/29 17:13:22;;;;;;;;;;;;;;;16.66;59.42;98778.59;10569143;28;1248;-70
2022/12/29 17:18:23;;;;;;;;;;;;;;;16.79;60.54;98787.66;10586965;28;932;-70
2022/12/29 17:23:23;;;;;;;;;;;;;;;17.01;61.88;98785.31;10568174;28;1204;-71
2022/12/29 17:28:24;;;;;;;;;;;;;;;17.25;63.00;98783.38;10567120;28;1978;-68
2022/12/29 17:33:24;;;;;;;;;;;;;;;17.36;63.75;98783.03;10567497;28;1175;-76
2022/12/29 17:38:26;;;;;;;;;;;;;;;17.50;64.16;98783.28;10567716;28;884;-67
2022/12/29 17:43:27;;;;;;;;;;;;;;;17.66;64.14;98785.88;10585652;28;1256;-67
2022/12/29 17:48:27;;;;;;;;;;;;;;;17.64;64.32;98788.72;10550404;28;1910;-71
2022/12/29 17:53:28;;;;;;;;;;;;;;;17.80;64.29;98781.66;10585578;28;1188;-67
2022/12/29 17:58:30;;;;;;;;;;;;;;;17.91;64.23;98784.75;10568982;28;923;-69
2022/12/29 18:03:33;;;;;;;;;;;;;;;17.74;65.05;98791.97;10584372;28;1193;-72
2022/12/29 18:08:34;;;;;;;;;;;;;;;16.97;70.14;98795.44;10584976;28;1910;-71
2022/12/29 18:13:34;;;;;;;;;;;;;;;17.22;70.25;98790.88;10566299;28;1317;-71
2022/12/29 18:18:35;;;;;;;;;;;;;;;17.73;66.21;98792.16;10584228;28;819;-66
2022/12/29 18:23:35;;;;;;;;;;;;;;;17.73;64.98;98797.47;10583998;28;1297;-70
2022/12/29 18:28:35;;;;;;;;;;;;;;;17.89;64.05;98794.69;10565812;28;1921;-67
2022/12/29 18:33:35;;;;;;;;;;;;;;;17.98;63.86;98795.47;10583772;28;1180;-69
2022/12/29 18:38:35;;;;;;;;;;;;;;;17.98;64.10;98793.66;10584056;28;1046;-67
2022/12/29 18:43:36;;;;;;;;;;;;;;;18.09;63.32;98789.75;10583562;28;1168;-69
2022/12/29 18:48:36;;;;;;;;;;;;;;;18.16;63.19;98800.50;10584054;28;1959;-68
2022/12/29 18:53:37;;;;;;;;;;;;;;;18.24;62.77;98793.28;10583870;28;1189;-67
2022/12/29 18:58:37;;;;;;;;;;;;;;;18.26;62.76;98801.91;10583259;28;916;-67
2022/12/29 19:03:37;;;;;;;;;;;;;;;18.05;63.76;98807.06;10582982;28;1172;-67
2022/12/29 19:08:37;;;;;;;;;;;;;;;17.28;68.37;98798.97;10583780;28;1913;-68
2022/12/29 19:13:39;;;;;;;;;;;;;;;17.64;68.22;98812.59;10565800;28;1332;-68
2022/12/29 19:18:39;;;;;;;;;;;;;;;18.15;64.15;98814.78;10555865;28;1446;-67
2022/12/29 19:23:39;;;;;;;;;;;;;;;18.38;62.68;98815.63;10587735;28;1165;-67
2022/12/29 19:28:40;;;;;;;;;;;;;;;18.44;61.89;98820.22;10589232;28;1983;-66
2022/12/29 19:33:40;;;;;;;;;;;;;;;18.49;61.71;98818.66;10571950;28;1171;-67
2022/12/29 19:38:40;;;;;;;;;;;;;;;18.47;60.49;98820.66;10572366;28;840;-68
2022/12/29 19:43:40;;;;;;;;;;;;;;;18.39;60.01;98819.91;10589867;28;1260;-67
2022/12/29 19:48:40;;;;;;;;;;;;;;;18.51;59.06;98821.16;10589637;28;1909;-68
2022/12/29 19:53:41;;;;;;;;;;;;;;;18.48;58.74;98816.16;10571953;28;1182;-67
2022/12/29 19:58:41;;;;;;;;;;;;;;;18.48;58.28;98832.94;10572136;28;1445;-67
2022/12/29 20:03:41;;;;;;;;;;;;;;;18.32;59.00;98838.38;10592759;28;1176;-67
2022/12/29 20:08:42;;;;;;;;;;;;;;;17.56;64.94;98835.66;10573819;28;1975;-67
2022/12/29 20:13:42;;;;;;;;;;;;;;;17.87;63.21;98847.16;10554407;28;1272;-68
2022/12/29 20:18:43;;;;;;;;;;;;;;;18.28;59.72;98846.91;10572861;28;800;-68
2022/12/29 20:23:43;;;;;;;;;;;;;;;18.38;58.13;98848.31;10554440;28;1193;-69
2022/12/29 20:28:44;;;;;;;;;;;;;;;18.42;57.28;98846.13;10553027;28;1983;-69
2022/12/29 20:33:44;;;;;;;;;;;;;;;18.44;56.20;98834.31;10589387;28;1181;-69
2022/12/29 20:38:44;;;;;;;;;;;;;;;18.46;55.31;98829.63;10588438;28;1046;-67
2022/12/29 20:43:44;;;;;;;;;;;;;;;18.48;54.74;98835.59;10600716;28;1168;-69
2022/12/29 20:48:45;;;;;;;;;;;;;;;18.55;53.98;98830.41;10587653;28;1957;-71
2022/12/29 20:53:45;;;;;;;;;;;;;;;18.52;53.38;98836.09;10569310;28;1196;-69
2022/12/29 20:58:45;;;;;;;;;;;;;;;18.33;51.50;98841.88;10568680;28;1169;-70
2022/12/29 21:03:45;;;;;;;;;;;;;;;18.13;52.74;98847.66;10568308;28;1193;-70
2022/12/29 21:08:49;;;;;;;;;;;;;;;17.40;57.88;98844.50;10568148;28;1969;-69
2022/12/29 21:13:49;;;;;;;;;;;;;;;17.73;56.23;98853.19;10568269;28;1236;-69
2022/12/29 21:18:50;;;;;;;;;;;;;;;18.12;52.62;98856.63;10586516;28;1042;-70
2022/12/29 21:23:50;;;;;;;;;;;;;;;18.23;51.67;98857.25;10568224;28;1185;-69
2022/12/29 21:28:51;;;;;;;;;;;;;;;18.27;50.21;98862.00;10585933;28;1976;-70
2022/12/29 21:33:51;;;;;;;;;;;;;;;18.32;49.43;98864.13;10567152;28;1432;-70
2022/12/29 21:38:51;;;;;;;;;;;;;;;18.38;48.87;98868.75;10583007;28;828;-69
2022/12/29 21:49:11;;;;;;;;;;;;;;;18.54;47.50;98857.19;10584904;28;1980;-69
2022/12/29 22:15:27;;;;;;;;;;;;;;;18.04;49.83;98869.97;10585239;28;999;-70
2022/12/29 22:20:28;;;;;;;;;;;;;;;18.28;48.00;98878.78;10565755;28;1283;-70
2022/12/29 22:25:29;;;;;;;;;;;;;;;18.37;46.56;98880.38;10567517;28;1423;-71
2022/12/29 22:30:29;;;;;;;;;;;;;;;18.43;45.74;98890.31;10548407;28;1910;-70
2022/12/29 22:35:29;;;;;;;;;;;;;;;17.76;48.45;98897.16;10583740;28;800;-71
2022/12/29 22:40:29;;;;;;;;;;;;;;;17.40;50.91;98900.22;10565884;28;1305;-71
2022/12/29 22:45:30;;;;;;;;;;;;;;;17.26;51.54;98898.28;10548425;28;1663;-71
2022/12/29 22:50:30;;;;;;;;;;;;;;;17.20;51.99;98899.78;10569543;28;1894;-71
2022/12/29 22:55:30;;;;;;;;;;;;;;;17.24;52.20;98914.34;10592469;28;864;-70
2022/12/29 23:00:30;;;;;;;;;;;;;;;17.26;52.67;98909.72;10591669;28;1204;-70
2022/12/29 23:05:30;;;;;;;;;;;;;;;17.25;53.03;98909.88;10592242;28;1040;-71
2022/12/29 23:10:31;;;;;;;;;;;;;;;17.22;53.85;98913.72;10573010;28;1898;-71
2022/12/29 23:15:32;;;;;;;;;;;;;;;17.18;54.87;98917.69;10572809;28;1041;-70
2022/12/29 23:20:32;;;;;;;;;;;;;;;17.19;55.78;98929.13;10591504;28;1175;-69
2022/12/29 23:25:34;;;;;;;;;;;;;;;17.19;55.83;98929.97;10591344;28;860;-70
2022/12/29 23:30:34;;;;;;;;;;;;;;;17.18;56.86;98927.47;10572071;28;1914;-70
2022/12/29 23:35:34;;;;;;;;;;;;;;;17.20;56.89;98925.47;10572605;28;1037;-71
2022/12/29 23:40:34;;;;;;;;;;;;;;;17.28;57.22;98930.78;10591220;28;1270;-72
2022/12/29 23:45:35;;;;;;;;;;;;;;;17.31;56.86;98927.78;10575979;28;911;-72
2022/12/29 23:50:37;;;;;;;;;;;;;;;17.39;56.98;98935.75;10571554;28;1991;-71
2022/12/29 23:55:39;;;;;;;;;;;;;;;17.46;57.01;98923.44;10571434;28;884;-71
